Time;durP1;ratioP1;P1;durP2;ratioP2;P2;SDS_P1;SDS_P2;PMS_P1;PMS_P2;Temp;Humidity;BMP_temperature;BMP_pressure;BME280_temperature;BME280_humidity;BME280_pressure;Samples;Min_cycle;Max_cycle;Signal;HPM_P1;HPM_P2
2021/04/30 00:02:16;;;;;;;12.82;6.92;;;;;;;7.12;83.00;100844.68;1589013;90;21383;-42
2021/04/30 00:04:44;;;;;;;14.45;7.12;;;;;;;7.12;83.00;100844.68;1588946;90;21050;-43
2021/04/30 00:07:12;;;;;;;11.85;6.15;;;;;;;7.11;82.98;100844.70;1588999;90;20987;-42
2021/04/30 00:09:40;;;;;;;13.48;6.78;;;;;;;7.08;83.26;100847.27;1588974;90;21079;-42
2021/04/30 00:12:08;;;;;;;14.50;7.78;;;;;;;7.11;84.20;100851.97;1589118;89;21168;-42
2021/04/30 00:14:37;;;;;;;12.20;7.42;;;;;;;7.12;84.59;100851.12;1588957;90;21353;-42
2021/04/30 00:17:05;;;;;;;12.88;7.83;;;;;;;7.12;84.59;100851.12;1589010;89;21075;-42
2021/04/30 00:19:33;;;;;;;33.75;9.28;;;;;;;7.04;85.07;100846.39;1588991;89;20948;-41
2021/04/30 00:22:01;;;;;;;28.98;8.73;;;;;;;7.04;85.07;100846.39;1589024;90;20998;-41
2021/04/30 00:24:30;;;;;;;19.42;8.05;;;;;;;7.01;85.33;100846.38;1589028;90;21690;-41
2021/04/30 00:26:59;;;;;;;16.12;8.43;;;;;;;7.00;85.32;100847.24;1588818;89;21402;-42
2021/04/30 00:29:27;;;;;;;14.43;7.72;;;;;;;6.96;85.31;100845.52;1588896;89;21191;-42
2021/04/30 00:31:54;;;;;;;11.95;6.90;;;;;;;6.94;85.56;100845.91;1579048;89;21085;-42
2021/04/30 00:34:22;;;;;;;19.55;8.30;;;;;;;6.95;85.73;100840.78;1578056;89;21711;-42
2021/04/30 00:36:50;;;;;;;10.78;7.47;;;;;;;6.95;85.63;100842.52;1578098;90;21631;-42
2021/04/30 00:39:18;;;;;;;8.83;6.10;;;;;;;6.90;85.41;100833.04;1578124;91;21433;-41
2021/04/30 00:41:46;;;;;;;7.78;5.80;;;;;;;6.87;85.56;100836.89;1577937;89;21102;-41
2021/04/30 00:44:14;;;;;;;25.55;8.10;;;;;;;6.83;85.68;100839.03;1578082;90;21004;-41
2021/04/30 00:46:42;;;;;;;15.60;8.78;;;;;;;6.78;86.01;100845.02;1578048;91;21126;-41
2021/04/30 00:49:12;;;;;;;19.60;8.73;;;;;;;6.76;86.37;100851.45;1578021;90;21058;-41
2021/04/30 00:51:40;;;;;;;15.38;8.10;;;;;;;6.79;86.52;100846.73;1578072;90;21388;-41
2021/04/30 00:54:08;;;;;;;17.95;8.63;;;;;;;6.82;86.65;100846.32;1577996;91;20996;-42
2021/04/30 00:56:36;;;;;;;26.60;8.88;;;;;;;6.87;86.63;100843.77;1578044;89;20987;-41
2021/04/30 00:59:04;;;;;;;15.30;9.43;;;;;;;6.94;86.65;100844.22;1578025;91;21007;-41
2021/04/30 01:01:33;;;;;;;147.90;15.53;;;;;;;6.95;86.79;100836.08;1578026;90;21130;-41
2021/04/30 01:04:01;;;;;;;60.33;10.80;;;;;;;7.03;86.57;100839.52;1578042;91;21290;-41
2021/04/30 01:06:31;;;;;;;53.17;11.93;;;;;;;7.09;86.54;100839.53;1578012;90;21392;-41
2021/04/30 01:09:02;;;;;;;31.15;10.25;;;;;;;7.12;86.37;100840.81;1578070;90;21057;-41
2021/04/30 01:11:29;;;;;;;40.23;10.43;;;;;;;7.17;86.45;100836.53;1578053;91;21016;-41
2021/04/30 01:13:57;;;;;;;29.50;10.30;;;;;;;7.17;86.28;100835.24;1578015;91;21107;-41
2021/04/30 01:16:25;;;;;;;16.40;9.38;;;;;;;7.20;86.49;100831.83;1578020;91;21251;-41
2021/04/30 01:18:52;;;;;;;42.58;13.13;;;;;;;7.20;86.49;100831.83;1578011;91;21092;-40
2021/04/30 01:21:23;;;;;;;36.63;11.78;;;;;;;7.19;86.22;100829.66;1578040;91;21008;-42
2021/04/30 01:23:53;;;;;;;45.12;13.75;;;;;;;7.22;86.35;100832.69;1578070;91;21142;-40
2021/04/30 01:26:21;;;;;;;58.78;14.10;;;;;;;7.24;86.18;100827.55;1578029;91;21209;-40
2021/04/30 01:28:50;;;;;;;48.25;14.03;;;;;;;7.26;86.31;100831.83;1578015;91;21405;-40
2021/04/30 01:31:18;;;;;;;22.42;10.72;;;;;;;7.28;86.24;100826.70;1583351;90;21058;-42
2021/04/30 01:33:57;;;;;;;25.77;11.10;;;;;;;7.27;86.04;100820.67;1588919;90;21103;-42
2021/04/30 01:36:24;;;;;;;20.48;10.25;;;;;;;7.25;85.84;100827.98;1588902;90;21042;-41
2021/04/30 01:38:53;;;;;;;20.97;12.00;;;;;;;7.16;85.66;100824.52;1588996;89;21045;-41
2021/04/30 01:41:22;;;;;;;23.15;13.00;;;;;;;7.08;85.73;100822.36;1588940;90;21345;-42
2021/04/30 01:43:50;;;;;;;31.30;11.63;;;;;;;7.03;85.76;100821.50;1589016;89;21718;-41
2021/04/30 01:46:17;;;;;;;24.92;13.38;;;;;;;6.98;85.84;100814.20;1588954;90;21184;-42
2021/04/30 01:48:46;;;;;;;24.12;14.05;;;;;;;6.94;85.84;100813.74;1588838;89;21217;-41
2021/04/30 01:51:13;;;;;;;26.20;13.48;;;;;;;6.87;85.98;100812.89;1588943;90;21226;-42
2021/04/30 01:53:41;;;;;;;29.40;13.03;;;;;;;6.81;86.15;100808.58;1588920;89;21243;-41
2021/04/30 01:56:10;;;;;;;24.72;13.68;;;;;;;6.77;86.23;100806.86;1588917;90;20995;-42
2021/04/30 01:58:39;;;;;;;32.08;14.68;;;;;;;6.69;86.64;100804.25;1588921;90;20979;-40
2021/04/30 02:01:06;;;;;;;35.68;15.25;;;;;;;6.69;86.64;100804.25;1588975;90;21054;-40
2021/04/30 02:03:35;;;;;;;28.52;14.87;;;;;;;6.65;86.78;100800.37;1588913;90;21189;-40
2021/04/30 02:06:03;;;;;;;28.92;14.40;;;;;;;6.63;86.94;100805.52;1559451;92;21226;-40
2021/04/30 02:08:31;;;;;;;34.92;16.20;;;;;;;6.61;86.99;100805.95;1559283;91;21033;-41
2021/04/30 02:11:00;;;;;;;37.42;17.42;;;;;;;6.56;87.25;100811.48;1559150;90;21066;-42
2021/04/30 02:13:28;;;;;;;47.67;17.17;;;;;;;6.56;87.60;100807.63;1559403;92;21085;-41
2021/04/30 02:15:55;;;;;;;55.73;19.27;;;;;;;6.55;87.74;100807.19;1559377;92;21077;-41
2021/04/30 02:18:23;;;;;;;60.15;20.43;;;;;;;6.53;87.95;100811.06;1574047;91;21243;-41
2021/04/30 02:20:52;;;;;;;66.57;22.25;;;;;;;6.52;88.13;100809.34;1548474;92;22947;-41
2021/04/30 02:23:20;;;;;;;65.08;23.42;;;;;;;6.50;88.63;100808.48;1573844;90;21203;-40
2021/04/30 02:25:47;;;;;;;72.32;25.90;;;;;;;6.51;88.74;100810.20;1548413;91;21078;-41
2021/04/30 02:28:15;;;;;;;61.10;22.50;;;;;;;6.60;89.21;100814.52;1573975;89;21000;-41
2021/04/30 02:30:43;;;;;;;69.35;21.30;;;;;;;6.70;89.28;100814.13;1548430;91;21401;-41
2021/04/30 02:33:11;;;;;;;91.30;23.98;;;;;;;6.76;89.07;100814.14;1573813;90;21055;-41
2021/04/30 02:35:41;;;;;;;80.50;26.40;;;;;;;6.80;89.47;100811.13;1548442;91;21093;-41
2021/04/30 02:38:11;;;;;;;91.08;26.07;;;;;;;6.84;89.27;100815.02;1573860;90;21222;-41
2021/04/30 02:40:40;;;;;;;96.65;25.77;;;;;;;6.86;89.37;100813.30;1548418;91;21005;-41
2021/04/30 02:43:17;;;;;;;61.83;25.23;;;;;;;6.96;89.79;100815.48;1573956;91;21238;-41
2021/04/30 02:46:25;;;;;;;90.65;28.17;;;;;;;7.21;90.13;100814.67;1777041;79;22313;-40
2021/04/30 02:49:00;;;;;;;58.95;22.55;;;;;;;7.29;90.06;100812.96;1749494;82;20920;-41
2021/04/30 02:51:22;;;;;;;75.55;23.18;;;;;;;7.42;89.93;100808.23;1748738;82;21388;-42
2021/04/30 02:53:49;;;;;;;64.90;23.45;;;;;;;7.56;89.71;100817.69;1749426;82;22183;-41
2021/04/30 02:56:17;;;;;;;79.37;24.45;;;;;;;7.65;89.39;100815.55;1749481;82;20995;-41
2021/04/30 02:58:44;;;;;;;76.57;25.40;;;;;;;7.68;89.30;100818.12;1749418;82;22855;-42
2021/04/30 03:01:12;;;;;;;74.32;24.15;;;;;;;7.69;89.01;100815.97;1749471;82;20955;-42
2021/04/30 03:03:39;;;;;;;58.33;26.50;;;;;;;7.67;88.60;100818.53;1733439;82;21199;-42
2021/04/30 03:06:07;;;;;;;68.20;38.78;;;;;;;7.66;88.37;100833.56;1719591;83;21480;-41
2021/04/30 03:08:35;;;;;;;57.03;29.67;;;;;;;7.61;88.12;100828.44;1719669;82;20971;-41
2021/04/30 03:11:02;;;;;;;47.17;27.35;;;;;;;7.54;87.73;100827.14;1719546;83;21035;-42
2021/04/30 03:13:31;;;;;;;45.73;23.87;;;;;;;7.48;87.53;100825.41;1719630;82;20989;-41
2021/04/30 03:15:59;;;;;;;39.42;24.00;;;;;;;7.46;87.54;100833.16;1719549;83;21204;-40
2021/04/30 03:18:27;;;;;;;50.80;23.83;;;;;;;7.52;87.72;100836.14;1719574;83;20983;-42
2021/04/30 03:20:55;;;;;;;40.25;22.85;;;;;;;7.65;88.14;100833.13;1719608;83;21093;-41
2021/04/30 03:23:23;;;;;;;39.08;24.20;;;;;;;7.84;88.40;100836.58;1719646;82;20966;-40
2021/04/30 03:25:51;;;;;;;53.58;24.37;;;;;;;8.04;88.37;100840.41;1719569;83;21007;-42
2021/04/30 03:28:18;;;;;;;42.88;21.97;;;;;;;8.26;88.23;100833.05;1719604;83;21209;-41
2021/04/30 03:30:46;;;;;;;31.90;21.95;;;;;;;8.45;88.08;100831.26;1719547;83;21018;-41
2021/04/30 03:33:14;;;;;;;35.98;22.40;;;;;;;8.66;87.89;100834.66;1719649;83;20963;-41
2021/04/30 03:35:41;;;;;;;38.88;19.98;;;;;;;8.82;87.59;100834.15;1719567;83;21282;-41
2021/04/30 03:38:09;;;;;;;32.67;20.85;;;;;;;8.97;87.25;100834.50;1719592;82;20939;-42
2021/04/30 03:40:37;;;;;;;32.30;19.48;;;;;;;9.13;86.91;100836.58;1719590;83;21368;-42
2021/04/30 03:43:04;;;;;;;29.48;20.15;;;;;;;9.29;86.59;100835.59;1719543;82;20946;-42
2021/04/30 03:45:32;;;;;;;37.55;20.88;;;;;;;9.43;86.19;100831.61;1719833;82;20955;-42
2021/04/30 03:48:00;;;;;;;28.47;18.02;;;;;;;9.58;85.85;100840.13;1720404;82;21038;-42
2021/04/30 03:50:27;;;;;;;35.15;19.05;;;;;;;9.71;85.38;100840.42;1720449;83;20911;-42
2021/04/30 03:52:55;;;;;;;29.27;18.57;;;;;;;9.86;84.87;100837.30;1720395;82;21385;-42
2021/04/30 03:55:23;;;;;;;32.35;20.10;;;;;;;9.99;84.41;100837.61;1720265;83;21074;-42
2021/04/30 03:57:50;;;;;;;36.23;20.20;;;;;;;10.11;83.94;100844.39;1719817;83;21018;-42
2021/04/30 04:00:19;;;;;;;40.70;19.15;;;;;;;10.21;83.48;100837.36;1719806;83;20963;-41
2021/04/30 04:02:47;;;;;;;29.65;17.55;;;;;;;10.34;83.02;100836.79;1719767;82;21182;-40
2021/04/30 04:05:15;;;;;;;29.37;17.92;;;;;;;10.44;82.48;100831.11;1719770;82;21373;-42
2021/04/30 04:07:43;;;;;;;29.60;17.17;;;;;;;10.55;81.93;100827.97;1719737;83;21057;-42
2021/04/30 04:10:11;;;;;;;33.18;16.73;;;;;;;10.66;81.53;100825.67;1719884;83;21512;-42
2021/04/30 04:12:40;;;;;;;24.55;14.33;;;;;;;10.77;81.01;100828.53;1719854;83;21026;-42
2021/04/30 04:15:09;;;;;;;36.05;14.80;;;;;;;10.92;80.53;100829.22;1719907;83;21577;-40
2021/04/30 04:17:37;;;;;;;33.60;14.18;;;;;;;11.09;80.08;100830.27;1719889;83;21372;-39
2021/04/30 04:20:06;;;;;;;30.88;13.80;;;;;;;11.28;79.23;100835.19;1719746;83;20951;-41
2021/04/30 04:22:34;;;;;;;42.50;13.10;;;;;;;11.46;78.69;100833.58;1719858;83;20943;-42
2021/04/30 04:25:02;;;;;;;41.63;12.45;;;;;;;11.66;77.78;100829.81;1719771;83;21033;-42
2021/04/30 04:27:30;;;;;;;33.05;11.73;;;;;;;11.89;76.73;100835.04;1719798;83;20944;-42
2021/04/30 04:29:57;;;;;;;34.60;12.35;;;;;;;12.12;76.07;100835.93;1719784;83;21141;-42
2021/04/30 04:32:25;;;;;;;36.60;11.70;;;;;;;12.33;75.24;100829.49;1719677;83;20967;-42
2021/04/30 04:34:52;;;;;;;20.52;10.53;;;;;;;12.54;74.69;100826.48;1719878;82;21109;-42
2021/04/30 04:37:20;;;;;;;18.57;9.93;;;;;;;12.76;73.89;100823.01;1719842;83;21034;-42
2021/04/30 04:39:48;;;;;;;18.50;9.60;;;;;;;12.93;73.00;100827.83;1719817;83;21046;-42
2021/04/30 04:42:15;;;;;;;15.43;9.43;;;;;;;13.04;72.11;100824.53;1719746;82;21142;-42
2021/04/30 04:44:44;;;;;;;22.48;8.85;;;;;;;13.13;71.36;100819.56;1719641;83;21030;-42
2021/04/30 04:47:11;;;;;;;15.00;9.08;;;;;;;13.25;70.63;100818.86;1719802;83;21109;-42
2021/04/30 04:49:39;;;;;;;17.55;8.73;;;;;;;13.35;70.20;100820.36;1719767;83;20948;-42
2021/04/30 04:52:07;;;;;;;15.75;8.58;;;;;;;13.39;69.39;100819.82;1719755;82;20991;-42
2021/04/30 04:54:36;;;;;;;17.77;8.28;;;;;;;13.43;69.08;100817.16;1719829;83;21386;-42
2021/04/30 04:57:06;;;;;;;12.63;8.25;;;;;;;13.45;68.89;100820.56;1719852;83;20963;-42
2021/04/30 04:59:33;;;;;;;17.50;8.48;;;;;;;13.53;68.29;100817.78;1719705;83;20951;-42
2021/04/30 05:02:01;;;;;;;19.00;8.93;;;;;;;13.61;68.31;100815.83;1719673;83;21018;-42
2021/04/30 05:04:29;;;;;;;13.85;8.85;;;;;;;13.71;68.11;100820.81;1719724;82;20979;-42
2021/04/30 05:06:56;;;;;;;16.00;7.42;;;;;;;13.81;67.88;100818.38;1719861;83;21393;-42
2021/04/30 05:09:27;;;;;;;16.15;7.90;;;;;;;13.90;67.10;100821.19;1719744;83;20978;-42
2021/04/30 05:11:54;;;;;;;17.23;7.53;;;;;;;13.96;66.82;100814.97;1719756;83;20959;-42
2021/04/30 05:14:22;;;;;;;19.10;8.65;;;;;;;14.02;66.62;100816.97;1719725;83;21003;-42
2021/04/30 05:16:52;;;;;;;14.00;7.50;;;;;;;14.11;66.58;100819.73;1716445;83;20951;-42
2021/04/30 05:19:20;;;;;;;16.27;7.58;;;;;;;14.23;66.46;100812.04;1719732;83;21371;-42
2021/04/30 05:21:48;;;;;;;16.62;7.72;;;;;;;14.34;66.41;100815.21;1719725;83;21093;-42
2021/04/30 05:24:15;;;;;;;11.60;7.10;;;;;;;14.47;65.79;100814.84;1719732;83;21015;-42
2021/04/30 05:26:43;;;;;;;13.30;7.58;;;;;;;14.60;65.18;100811.43;1719701;83;20998;-42
2021/04/30 05:29:12;;;;;;;10.95;6.83;;;;;;;14.69;64.66;100809.00;1719827;83;20908;-42
2021/04/30 05:31:40;;;;;;;10.82;6.87;;;;;;;14.85;64.40;100812.03;1719777;83;21421;-42
2021/04/30 05:34:08;;;;;;;11.10;6.60;;;;;;;15.03;63.81;100814.51;1719642;83;21073;-42
2021/04/30 05:36:36;;;;;;;9.60;5.60;;;;;;;15.25;63.76;100817.30;1719786;83;20919;-42
2021/04/30 05:39:05;;;;;;;9.08;5.87;;;;;;;15.51;62.83;100806.47;1719828;83;20935;-42
2021/04/30 05:41:32;;;;;;;11.03;5.78;;;;;;;15.76;62.24;100808.23;1719733;83;20952;-42
2021/04/30 05:44:00;;;;;;;8.58;5.03;;;;;;;16.05;61.87;100803.34;1719811;83;21357;-42
2021/04/30 05:46:27;;;;;;;10.90;4.87;;;;;;;16.21;60.44;100807.98;1711691;83;21042;-42
2021/04/30 05:48:55;;;;;;;8.35;5.05;;;;;;;16.37;60.03;100803.92;1706185;84;21008;-43
2021/04/30 05:51:23;;;;;;;12.82;5.00;;;;;;;16.40;59.49;100804.70;1706243;84;20951;-42
2021/04/30 05:53:51;;;;;;;10.68;4.70;;;;;;;16.48;59.13;100804.83;1706279;84;21011;-42
2021/04/30 05:56:20;;;;;;;7.72;4.72;;;;;;;16.60;59.08;100798.28;1704592;84;21382;-42
2021/04/30 05:58:47;;;;;;;9.03;4.30;;;;;;;16.75;58.57;100794.66;1706125;84;21051;-42
2021/04/30 06:01:16;;;;;;;8.20;4.60;;;;;;;16.85;58.06;100795.16;1706206;84;21099;-42
2021/04/30 06:03:44;;;;;;;11.33;4.83;;;;;;;16.93;57.85;100795.72;1706171;82;20943;-42
2021/04/30 06:06:12;;;;;;;7.78;4.33;;;;;;;17.07;57.14;100794.73;1686318;84;21055;-42
2021/04/30 06:08:40;;;;;;;16.10;4.58;;;;;;;17.18;56.49;100790.84;1706163;84;21209;-42
2021/04/30 06:11:08;;;;;;;7.80;4.03;;;;;;;17.22;55.56;100794.56;1706177;84;21030;-42
2021/04/30 06:13:36;;;;;;;12.73;4.53;;;;;;;17.20;54.90;100795.55;1706234;84;20964;-42
2021/04/30 06:16:05;;;;;;;6.60;4.60;;;;;;;17.17;54.81;100798.27;1706087;83;20935;-42
2021/04/30 06:18:33;;;;;;;7.05;4.83;;;;;;;17.13;54.17;100793.64;1706300;84;21067;-42
2021/04/30 06:21:00;;;;;;;12.00;5.45;;;;;;;17.06;54.15;100783.05;1706147;84;21374;-42
2021/04/30 06:23:28;;;;;;;13.62;6.15;;;;;;;17.08;54.45;100790.37;1706115;84;21066;-42
2021/04/30 06:25:56;;;;;;;18.57;7.15;;;;;;;17.22;54.92;100790.64;1706140;84;21034;-42
2021/04/30 06:28:23;;;;;;;14.60;6.85;;;;;;;17.23;53.63;100786.27;1706336;83;21041;-42
2021/04/30 06:30:51;;;;;;;11.43;6.40;;;;;;;17.16;53.62;100792.20;1706170;84;20975;-42
2021/04/30 06:33:19;;;;;;;20.75;7.20;;;;;;;17.20;53.39;100796.86;1706241;84;21265;-42
2021/04/30 06:35:47;;;;;;;19.00;7.33;;;;;;;17.17;52.75;100793.91;1706099;83;21031;-41
2021/04/30 06:38:14;;;;;;;18.10;6.30;;;;;;;17.12;53.44;100791.94;1706145;84;21031;-41
2021/04/30 06:40:42;;;;;;;17.70;6.15;;;;;;;17.09;53.21;100789.45;1706110;84;21019;-42
2021/04/30 06:43:10;;;;;;;16.82;6.53;;;;;;;17.06;53.04;100787.80;1706138;84;20952;-42
2021/04/30 06:45:38;;;;;;;14.07;6.55;;;;;;;17.13;53.03;100796.25;1706082;83;21391;-42
2021/04/30 06:48:07;;;;;;;16.07;5.95;;;;;;;17.28;53.42;100792.60;1706175;84;20952;-42
2021/04/30 06:50:35;;;;;;;21.37;5.35;;;;;;;17.40;52.99;100792.11;1706203;84;21639;-42
2021/04/30 06:53:03;;;;;;;10.58;5.25;;;;;;;17.56;52.77;100792.78;1706151;84;21031;-42
2021/04/30 06:55:31;;;;;;;13.43;5.10;;;;;;;17.71;52.55;100792.58;1706101;84;21039;-42
2021/04/30 06:57:59;;;;;;;14.93;6.33;;;;;;;17.92;52.06;100781.62;1706273;84;21206;-42
2021/04/30 07:00:26;;;;;;;31.77;5.17;;;;;;;18.14;50.80;100782.01;1706192;83;21035;-42
2021/04/30 07:02:54;;;;;;;13.85;4.95;;;;;;;18.18;50.74;100775.70;1706144;82;20964;-42
2021/04/30 07:05:23;;;;;;;14.10;5.00;;;;;;;18.16;50.17;100782.31;1705861;84;21051;-42
2021/04/30 07:07:53;;;;;;;12.78;4.85;;;;;;;18.05;50.19;100776.72;1706236;84;21042;-42
2021/04/30 07:10:23;;;;;;;24.07;5.30;;;;;;;17.99;50.88;100774.34;1706207;84;21204;-42
2021/04/30 07:12:51;;;;;;;19.80;5.42;;;;;;;18.02;51.02;100782.94;1706116;84;21055;-42
2021/04/30 07:15:18;;;;;;;12.13;5.42;;;;;;;18.09;50.42;100772.59;1706219;84;20959;-42
2021/04/30 07:17:46;;;;;;;15.78;4.95;;;;;;;18.19;50.49;100774.34;1706159;84;20987;-42
2021/04/30 07:20:14;;;;;;;12.35;4.50;;;;;;;18.37;49.88;100775.70;1706035;84;21019;-42
2021/04/30 07:22:42;;;;;;;15.83;4.90;;;;;;;18.53;49.31;100771.91;1706193;82;21441;-41
2021/04/30 07:25:10;;;;;;;14.85;5.05;;;;;;;18.58;48.36;100769.95;1706076;82;21042;-42
2021/04/30 07:27:38;;;;;;;9.45;4.67;;;;;;;18.59;49.13;100772.95;1706122;82;21177;-42
2021/04/30 07:30:07;;;;;;;7.12;4.95;;;;;;;18.74;49.00;100762.20;1706120;84;21453;-42
2021/04/30 07:32:34;;;;;;;9.68;4.33;;;;;;;18.82;48.42;100760.52;1706357;82;21486;-42
2021/04/30 07:35:03;;;;;;;9.48;4.90;;;;;;;18.99;48.63;100755.80;1706316;84;21369;-42
2021/04/30 07:37:31;;;;;;;12.23;4.65;;;;;;;19.17;48.21;100755.79;1706271;84;21031;-42
2021/04/30 07:39:59;;;;;;;16.40;4.50;;;;;;;19.22;47.42;100753.33;1706297;83;20968;-42
2021/04/30 07:42:26;;;;;;;15.35;5.53;;;;;;;19.35;47.42;100746.16;1706242;84;21082;-42
2021/04/30 07:44:54;;;;;;;13.55;4.47;;;;;;;19.41;46.51;100749.78;1706332;84;21023;-42
2021/04/30 07:47:22;;;;;;;20.80;5.87;;;;;;;19.38;46.71;100736.82;1715910;83;21380;-42
2021/04/30 07:49:50;;;;;;;18.35;4.35;;;;;;;19.50;46.73;100728.30;1719772;83;21006;-42
2021/04/30 07:52:18;;;;;;;17.95;4.25;;;;;;;19.41;46.62;100726.16;1719931;83;21603;-42
2021/04/30 07:54:46;;;;;;;4.85;3.30;;;;;;;19.48;46.89;100731.47;1719762;83;21006;-42
2021/04/30 07:57:13;;;;;;;11.53;3.58;;;;;;;19.86;46.60;100724.30;1719884;83;21081;-42
2021/04/30 07:59:41;;;;;;;7.92;3.20;;;;;;;20.20;45.70;100717.25;1719791;83;21202;-42
2021/04/30 08:02:09;;;;;;;7.30;3.08;;;;;;;20.28;43.93;100718.14;1719691;83;21594;-42
2021/04/30 08:04:38;;;;;;;14.38;3.75;;;;;;;20.20;44.41;100708.05;1719740;82;21022;-43
2021/04/30 08:07:05;;;;;;;17.87;3.10;;;;;;;20.07;44.09;100712.65;1719780;83;21006;-42
2021/04/30 08:09:33;;;;;;;14.87;2.77;;;;;;;19.86;43.69;100716.42;1719803;83;20935;-43
2021/04/30 08:12:01;;;;;;;18.10;2.95;;;;;;;19.58;45.27;100719.17;1719790;82;21379;-42
2021/04/30 08:14:30;;;;;;;19.77;3.30;;;;;;;19.49;45.54;100721.84;1719757;82;20967;-42
2021/04/30 08:16:58;;;;;;;6.55;3.15;;;;;;;19.31;45.73;100715.28;1719864;83;20951;-43
2021/04/30 08:19:26;;;;;;;33.73;3.55;;;;;;;19.51;45.76;100713.41;1719762;83;21007;-43
2021/04/30 08:21:54;;;;;;;21.60;4.15;;;;;;;19.70;45.31;100710.66;1719860;83;20991;-43
2021/04/30 08:24:22;;;;;;;33.15;4.05;;;;;;;20.08;44.05;100706.49;1719771;83;21253;-42
2021/04/30 08:26:50;;;;;;;34.45;4.35;;;;;;;20.24;44.54;100700.38;1719689;83;21027;-40
2021/04/30 08:29:18;;;;;;;21.30;3.98;;;;;;;20.37;44.14;100697.45;1719796;83;21027;-40
2021/04/30 08:31:46;;;;;;;29.52;3.80;;;;;;;20.55;44.39;100693.39;1719727;83;21014;-40
2021/04/30 08:34:13;;;;;;;29.27;3.87;;;;;;;20.91;43.85;100687.45;1719842;83;20935;-42
2021/04/30 08:36:41;;;;;;;86.80;5.85;;;;;;;21.27;42.82;100689.31;1719789;82;21403;-43
2021/04/30 08:39:10;;;;;;;72.92;6.40;;;;;;;21.42;42.05;100688.85;1719635;83;20955;-43
2021/04/30 08:41:38;;;;;;;25.43;4.05;;;;;;;21.65;41.92;100679.11;1719744;82;21041;-43
2021/04/30 08:44:06;;;;;;;15.88;3.15;;;;;;;21.88;40.71;100672.88;1719727;83;20947;-43
2021/04/30 08:46:35;;;;;;;41.13;4.58;;;;;;;21.90;40.51;100676.75;1719630;83;21141;-43
2021/04/30 08:49:06;;;;;;;20.82;3.50;;;;;;;21.72;41.81;100676.09;1719770;83;21369;-43
2021/04/30 08:51:34;;;;;;;19.85;3.52;;;;;;;21.54;40.32;100671.01;1719827;83;21638;-43
2021/04/30 08:54:04;;;;;;;7.05;3.00;;;;;;;21.01;41.33;100670.66;1719784;82;21074;-43
2021/04/30 08:56:33;;;;;;;13.20;2.80;;;;;;;20.73;41.85;100666.98;1719728;83;21007;-43
2021/04/30 08:59:01;;;;;;;18.07;3.55;;;;;;;20.62;42.80;100672.86;1719902;83;21007;-43
2021/04/30 09:01:28;;;;;;;6.95;2.87;;;;;;;20.90;43.07;100673.91;1719742;83;21204;-43
2021/04/30 09:03:56;;;;;;;10.63;3.15;;;;;;;21.17;42.01;100667.50;1719748;82;20987;-44
2021/04/30 09:06:33;;;;;;;9.33;3.10;;;;;;;21.14;41.01;100669.00;1719721;83;21066;-43
2021/04/30 09:09:15;;;;;;;17.67;3.12;;;;;;;21.06;40.98;100663.33;1719279;83;21565;-43
2021/04/30 09:11:48;;;;;;;23.87;4.20;;;;;;;21.16;40.68;100664.49;1719861;82;21342;-43
2021/04/30 09:14:31;;;;;;;9.25;2.37;;;;;;;21.32;40.65;100659.61;1719808;83;21268;-43
2021/04/30 09:17:06;;;;;;;28.62;3.33;;;;;;;21.61;40.36;100647.30;1719644;82;21010;-42
2021/04/30 09:19:48;;;;;;;10.55;2.98;;;;;;;21.85;40.12;100644.56;1719200;83;20959;-42
2021/04/30 09:22:21;;;;;;;19.85;3.10;;;;;;;21.69;40.27;100646.86;1719703;83;20939;-42
2021/04/30 09:24:58;;;;;;;24.70;3.50;;;;;;;21.75;39.94;100637.73;1719758;83;21006;-42
2021/04/30 09:27:39;;;;;;;12.47;2.75;;;;;;;21.90;39.40;100635.91;1719711;82;21210;-42
2021/04/30 09:30:25;;;;;;;7.45;2.70;;;;;;;21.59;40.58;100636.47;1719578;83;21413;-42
2021/04/30 09:33:15;;;;;;;23.60;3.00;;;;;;;21.42;40.32;100633.11;1719722;83;20955;-42
2021/04/30 09:35:46;;;;;;;5.22;2.40;;;;;;;21.30;40.94;100628.13;1719695;83;21002;-42
2021/04/30 09:38:32;;;;;;;8.58;2.50;;;;;;;21.14;40.58;100634.80;1719801;83;21480;-42
2021/04/30 09:41:11;;;;;;;32.23;4.00;;;;;;;21.12;40.76;100627.47;1719777;83;21397;-42
2021/04/30 09:43:45;;;;;;;22.35;3.80;;;;;;;21.34;41.21;100629.63;1719640;83;21006;-42
2021/04/30 09:46:36;;;;;;;18.55;3.37;;;;;;;21.39;40.43;100629.36;1719662;83;21065;-41
2021/04/30 09:49:11;;;;;;;10.82;3.17;;;;;;;21.42;40.44;100623.90;1719663;83;20951;-43
2021/04/30 09:51:50;;;;;;;6.67;2.20;;;;;;;21.58;40.23;100611.08;1719863;83;20970;-42
2021/04/30 09:54:21;;;;;;;10.75;2.62;;;;;;;21.44;39.82;100623.33;1719736;83;21379;-42
2021/04/30 09:57:10;;;;;;;12.20;2.62;;;;;;;21.62;39.82;100609.97;1719707;83;21073;-42
2021/04/30 09:59:43;;;;;;;8.38;2.45;;;;;;;21.95;39.74;100620.66;1715752;83;21026;-42
2021/04/30 10:02:15;;;;;;;7.55;3.17;;;;;;;22.20;39.64;100621.22;1719753;83;21678;-42
2021/04/30 10:04:46;;;;;;;14.90;2.58;;;;;;;22.34;38.69;100612.41;1719715;82;21015;-43
2021/04/30 10:07:27;;;;;;;4.30;2.22;;;;;;;22.38;38.62;100603.83;1719748;83;21375;-42
2021/04/30 10:10:19;;;;;;;19.80;3.25;;;;;;;22.50;38.87;100601.75;1847615;76;22140;-42
2021/04/30 10:12:49;;;;;;;26.68;3.52;;;;;;;22.59;38.33;100604.70;1817718;79;20974;-44
2021/04/30 10:15:19;;;;;;;55.33;4.80;;;;;;;22.63;37.64;100600.91;1817796;78;21321;-43
2021/04/30 10:17:57;;;;;;;18.20;3.75;;;;;;;22.67;38.20;100599.75;1817728;78;21080;-42
2021/04/30 10:20:24;;;;;;;8.73;2.85;;;;;;;22.83;38.78;100596.92;1817899;79;21575;-43
2021/04/30 10:22:53;;;;;;;24.52;3.00;;;;;;;23.25;38.08;100585.70;1817833;78;20994;-43
2021/04/30 10:25:21;;;;;;;26.02;3.60;;;;;;;23.56;38.14;100579.20;1817810;79;20915;-43
2021/04/30 10:27:53;;;;;;;41.33;4.00;;;;;;;23.71;36.67;100581.21;1817830;79;21413;-42
2021/04/30 10:30:34;;;;;;;8.48;2.85;;;;;;;23.85;35.68;100576.24;1817682;79;22415;-43
2021/04/30 10:33:16;;;;;;;4.40;2.37;;;;;;;23.86;34.89;100576.15;1817770;78;20986;-42
2021/04/30 10:36:23;;;;;;;5.97;2.58;;;;;;;23.66;35.34;100573.64;1817695;78;21073;-43
2021/04/30 10:38:53;;;;;;;12.07;3.72;;;;;;;23.67;34.94;100568.72;1817817;78;21539;-42
2021/04/30 10:41:39;;;;;;;19.95;3.47;;;;;;;23.28;35.38;100571.91;1817843;78;22297;-42
2021/04/30 10:44:32;;;;;;;10.93;2.98;;;;;;;23.12;36.15;100570.34;1817737;79;20962;-42
2021/04/30 10:47:09;;;;;;;16.35;3.20;;;;;;;23.06;36.53;100561.50;1817748;78;21473;-43
2021/04/30 10:49:39;;;;;;;19.87;2.98;;;;;;;22.81;37.64;100557.92;1817647;77;21379;-41
2021/04/30 10:52:20;;;;;;;38.85;4.00;;;;;;;22.84;37.72;100552.92;1817768;77;20989;-41
2021/04/30 10:55:06;;;;;;;31.15;3.30;;;;;;;23.02;36.85;100551.66;1817692;79;21188;-41
2021/04/30 10:57:56;;;;;;;18.10;3.12;;;;;;;23.14;36.15;100553.05;1817900;77;20959;-41
2021/04/30 11:00:39;;;;;;;43.30;4.33;;;;;;;23.00;36.01;100544.32;1817730;77;21583;-42
2021/04/30 11:03:16;;;;;;;16.20;3.50;;;;;;;22.91;36.39;100548.44;1809488;78;21026;-42
2021/04/30 11:06:05;;;;;;;35.52;4.50;;;;;;;22.87;36.78;100543.47;1785550;80;21508;-43
2021/04/30 11:08:50;;;;;;;28.83;4.60;;;;;;;22.96;36.99;100541.50;1789181;79;21361;-43
2021/04/30 11:11:36;;;;;;;41.05;4.33;;;;;;;23.29;37.30;100519.48;1800034;78;20922;-42
2021/04/30 11:14:35;;;;;;;23.15;3.85;;;;;;;23.73;36.60;100523.35;1800057;78;20994;-43
2021/04/30 11:17:05;;;;;;;27.05;3.77;;;;;;;24.33;35.40;100529.97;1800183;79;20985;-42
2021/04/30 11:19:38;;;;;;;20.72;3.08;;;;;;;24.67;34.18;100520.80;1799894;79;21001;-43
2021/04/30 11:22:14;;;;;;;45.83;4.20;;;;;;;24.69;33.71;100507.44;1748922;79;21370;-42
2021/04/30 11:24:50;;;;;;;24.75;3.45;;;;;;;24.44;34.39;100519.08;1799473;78;20938;-42
2021/04/30 11:27:23;;;;;;;37.35;4.28;;;;;;;24.39;34.57;100525.56;1799191;79;21049;-42
2021/04/30 11:29:52;;;;;;;32.88;3.60;;;;;;;24.38;33.59;100523.88;1799445;79;20953;-42
2021/04/30 11:32:27;;;;;;;16.12;2.52;;;;;;;24.28;33.57;100518.08;1799476;79;20942;-42
2021/04/30 11:35:01;;;;;;;44.48;4.95;;;;;;;23.88;34.08;100520.55;1799506;79;21197;-43